createdAt,value
2019-06-27T00:00:55.189Z,99.90
2019-06-27T00:03:21.214Z,99.90
2019-06-27T00:05:47.337Z,99.90
2019-06-27T00:08:13.556Z,99.90
2019-06-27T00:10:39.600Z,99.90
2019-06-27T00:13:05.600Z,99.90
2019-06-27T00:15:31.626Z,99.90
2019-06-27T00:17:57.697Z,99.90
2019-06-27T00:20:23.788Z,99.90
2019-06-27T00:22:49.834Z,99.90
2019-06-27T00:25:15.858Z,99.90
2019-06-27T00:27:41.892Z,99.90
2019-06-27T00:30:08.216Z,99.90
2019-06-27T00:32:34.246Z,99.90
2019-06-27T00:35:00.562Z,99.90
2019-06-27T00:37:26.577Z,99.90
2019-06-27T00:39:52.577Z,99.90
2019-06-27T00:42:19.799Z,99.90
2019-06-27T00:44:45.849Z,99.90
2019-06-27T00:47:12.007Z,99.90
2019-06-27T00:49:38.224Z,99.90
2019-06-27T00:52:04.377Z,99.90
2019-06-27T00:54:30.388Z,99.90
2019-06-27T00:57:12.599Z,99.90
2019-06-27T00:59:24.297Z,99.90
2019-06-27T01:01:50.583Z,99.90
2019-06-27T01:04:19.290Z,99.90
2019-06-27T01:06:47.289Z,99.90
2019-06-27T01:09:13.346Z,99.90
2019-06-27T01:11:39.407Z,99.90
2019-06-27T01:14:05.532Z,99.90
2019-06-27T01:16:31.636Z,99.90
2019-06-27T01:18:57.651Z,99.90
2019-06-27T01:21:23.670Z,99.90
2019-06-27T01:23:49.696Z,99.90
2019-06-27T01:26:15.824Z,99.90
2019-06-27T01:28:41.842Z,99.90
2019-06-27T01:31:07.962Z,99.90
2019-06-27T01:33:38.701Z,99.90
2019-06-27T01:36:04.719Z,99.90
2019-06-27T01:38:30.748Z,99.90
2019-06-27T01:40:56.850Z,99.90
2019-06-27T01:43:24.761Z,99.90
2019-06-27T01:45:52.768Z,99.90
2019-06-27T01:48:20.070Z,99.90
2019-06-27T01:50:46.061Z,99.90
2019-06-27T01:53:12.105Z,99.90
2019-06-27T01:55:38.589Z,99.90
2019-06-27T01:58:04.766Z,99.90
2019-06-27T02:00:31.204Z,99.90
2019-06-27T02:02:57.401Z,99.90
2019-06-27T02:05:23.446Z,99.90
2019-06-27T02:07:49.462Z,99.90
2019-06-27T02:10:16.825Z,99.90
2019-06-27T02:12:42.846Z,99.90
2019-06-27T02:15:09.074Z,99.90
2019-06-27T02:17:35.094Z,99.90
2019-06-27T02:20:01.350Z,99.90
2019-06-27T02:22:27.373Z,99.90
2019-06-27T02:24:53.402Z,99.90
2019-06-27T02:27:19.430Z,99.90
2019-06-27T02:29:45.444Z,99.90
2019-06-27T02:32:11.480Z,99.90
2019-06-27T02:34:37.505Z,99.90
2019-06-27T02:37:03.497Z,99.90
2019-06-27T02:39:29.523Z,99.90
2019-06-27T02:41:55.565Z,99.90
2019-06-27T02:44:21.610Z,99.90
2019-06-27T02:46:47.638Z,99.90
2019-06-27T02:49:13.633Z,99.90
2019-06-27T02:51:39.848Z,99.90
2019-06-27T02:54:05.884Z,99.90
2019-06-27T02:56:31.898Z,99.90
2019-06-27T02:58:57.913Z,99.90
2019-06-27T03:01:23.965Z,99.90
2019-06-27T03:03:49.983Z,99.90
2019-06-27T03:06:15.998Z,99.90
2019-06-27T03:08:42.026Z,99.90
2019-06-27T03:11:08.080Z,99.90
2019-06-27T03:13:36.973Z,99.90
2019-06-27T03:16:02.983Z,99.90
2019-06-27T03:18:30.157Z,99.90
2019-06-27T03:20:56.213Z,99.90
2019-06-27T03:23:22.218Z,99.90
2019-06-27T03:25:48.272Z,99.90
2019-06-27T03:28:14.602Z,99.90
2019-06-27T03:30:40.822Z,99.90
2019-06-27T03:33:06.881Z,99.90
2019-06-27T03:35:32.906Z,99.90
2019-06-27T03:37:59.157Z,99.90
2019-06-27T03:40:25.278Z,99.90
2019-06-27T03:42:51.405Z,99.90
2019-06-27T03:45:17.501Z,99.90
2019-06-27T03:47:44.850Z,99.90
2019-06-27T03:50:11.142Z,99.90
2019-06-27T03:52:37.204Z,99.90
2019-06-27T03:55:04.012Z,99.90
2019-06-27T03:57:30.096Z,99.90
2019-06-27T03:59:56.097Z,99.90
2019-06-27T04:02:22.222Z,99.90
2019-06-27T04:04:48.272Z,99.90
2019-06-27T04:07:14.319Z,99.90
2019-06-27T04:09:40.435Z,99.90
2019-06-27T04:12:06.675Z,99.90
2019-06-27T04:14:32.672Z,99.90
2019-06-27T04:16:58.960Z,99.90
2019-06-27T04:19:25.093Z,99.90
2019-06-27T04:21:51.224Z,99.90
2019-06-27T04:24:19.196Z,99.90
2019-06-27T04:26:47.269Z,99.90
2019-06-27T04:29:31.912Z,99.90
2019-06-27T04:31:41.255Z,99.90
2019-06-27T04:34:07.518Z,99.90
2019-06-27T04:36:33.520Z,99.90
2019-06-27T04:38:59.528Z,99.90
2019-06-27T04:41:25.516Z,99.90
2019-06-27T04:43:51.581Z,99.90
2019-06-27T04:46:17.640Z,99.90
2019-06-27T04:48:43.817Z,99.90
2019-06-27T04:51:10.421Z,99.90
2019-06-27T04:53:38.676Z,99.90
2019-06-27T04:56:04.956Z,99.90
2019-06-27T04:58:31.019Z,99.90
2019-06-27T05:00:57.029Z,99.90
2019-06-27T05:03:23.091Z,99.90
2019-06-27T05:05:49.099Z,99.90
2019-06-27T05:08:15.197Z,99.90
2019-06-27T05:10:42.791Z,99.90
2019-06-27T05:13:08.974Z,99.90
2019-06-27T05:15:35.027Z,99.90
2019-06-27T05:18:01.077Z,99.90
2019-06-27T05:20:27.118Z,99.90
2019-06-27T05:22:53.158Z,99.90
2019-06-27T05:25:21.192Z,99.90
2019-06-27T05:27:47.309Z,99.90
2019-06-27T05:30:15.307Z,99.90
2019-06-27T05:32:41.393Z,99.90
2019-06-27T05:35:08.061Z,99.90
2019-06-27T05:37:34.262Z,99.90
2019-06-27T05:40:00.373Z,99.90
2019-06-27T05:42:26.775Z,99.90
2019-06-27T05:44:52.896Z,99.90
2019-06-27T05:47:19.015Z,99.90
2019-06-27T05:49:45.114Z,99.90
2019-06-27T05:52:11.253Z,99.90
2019-06-27T05:54:38.052Z,99.90
2019-06-27T05:57:04.222Z,99.90
2019-06-27T05:59:30.345Z,99.90
2019-06-27T06:02:04.059Z,99.90
2019-06-27T06:04:30.160Z,99.90
2019-06-27T06:06:57.362Z,99.90
2019-06-27T06:09:23.504Z,99.90
2019-06-27T06:11:49.579Z,99.90
2019-06-27T06:14:15.754Z,99.90
2019-06-27T06:16:41.803Z,99.90
2019-06-27T06:19:07.943Z,99.90
2019-06-27T06:21:34.035Z,99.90
2019-06-27T06:24:00.091Z,99.90
2019-06-27T06:26:28.414Z,99.90
2019-06-27T06:28:55.825Z,99.90
2019-06-27T06:31:22.372Z,99.90
2019-06-27T06:33:48.437Z,99.90
2019-06-27T06:36:14.625Z,99.90
2019-06-27T06:38:40.791Z,99.90
2019-06-27T06:41:06.857Z,99.90
2019-06-27T06:43:32.969Z,99.90
2019-06-27T06:45:59.047Z,99.90
2019-06-27T06:48:25.066Z,99.90
2019-06-27T06:50:52.488Z,99.90
2019-06-27T06:53:18.632Z,99.90
2019-06-27T06:55:44.982Z,99.90
2019-06-27T06:58:11.011Z,99.90
2019-06-27T07:00:37.047Z,99.90
2019-06-27T07:03:03.065Z,99.90
2019-06-27T07:05:29.902Z,99.90
2019-06-27T07:07:55.928Z,99.90
2019-06-27T07:10:22.117Z,99.90
2019-06-27T07:12:48.156Z,99.90
2019-06-27T07:15:15.552Z,99.90
2019-06-27T07:17:41.739Z,99.90
2019-06-27T07:20:07.936Z,99.90
2019-06-27T07:22:33.941Z,99.90
2019-06-27T07:25:02.599Z,99.90
2019-06-27T07:27:29.119Z,99.90
2019-06-27T07:29:55.524Z,99.90
2019-06-27T07:32:23.440Z,99.90
2019-06-27T07:34:49.690Z,99.90
2019-06-27T07:37:15.763Z,99.90
2019-06-27T07:39:41.833Z,99.90
2019-06-27T07:42:07.913Z,99.90
2019-06-27T07:44:34.041Z,99.90
2019-06-27T07:47:00.164Z,99.90
2019-06-27T07:49:26.188Z,99.90
2019-06-27T07:51:52.292Z,99.90
2019-06-27T07:54:18.457Z,99.20
2019-06-27T07:56:46.345Z,98.40
2019-06-27T07:59:12.616Z,99.00
2019-06-27T08:01:38.678Z,99.00
2019-06-27T08:04:04.688Z,99.10
2019-06-27T08:06:30.854Z,98.60
2019-06-27T08:08:56.919Z,98.60
2019-06-27T08:11:23.380Z,98.80
2019-06-27T08:13:49.393Z,98.80
2019-06-27T08:16:15.406Z,99.20
2019-06-27T08:18:41.426Z,98.70
2019-06-27T08:21:07.471Z,99.50
2019-06-27T08:23:41.344Z,99.90
2019-06-27T08:26:01.796Z,99.90
2019-06-27T08:28:27.840Z,99.90
2019-06-27T08:30:53.866Z,99.90
2019-06-27T08:33:21.812Z,98.70
2019-06-27T08:35:48.619Z,98.70
2019-06-27T08:38:14.642Z,98.40
2019-06-27T08:40:40.760Z,99.40
2019-06-27T08:43:06.785Z,99.10
2019-06-27T08:45:32.789Z,99.40
2019-06-27T08:47:58.804Z,98.90
2019-06-27T08:50:24.910Z,99.00
2019-06-27T08:52:50.912Z,99.10
2019-06-27T08:55:17.039Z,99.90
2019-06-27T08:57:43.072Z,99.90
2019-06-27T09:00:11.471Z,99.90
2019-06-27T09:02:37.661Z,99.90
2019-06-27T09:05:05.664Z,99.90
2019-06-27T09:07:31.935Z,99.90
2019-06-27T09:09:59.069Z,99.90
2019-06-27T09:12:25.072Z,99.90
2019-06-27T09:14:51.101Z,99.30
2019-06-27T09:17:17.290Z,98.90
2019-06-27T09:19:43.345Z,98.20
2019-06-27T09:22:09.328Z,98.60
2019-06-27T09:24:35.632Z,97.70
2019-06-27T09:27:01.675Z,97.50
2019-06-27T09:29:27.680Z,97.30
2019-06-27T09:31:53.707Z,97.20
2019-06-27T09:34:21.524Z,97.30
2019-06-27T09:36:47.615Z,96.90
2019-06-27T09:39:13.735Z,96.00
2019-06-27T09:41:39.716Z,95.60
2019-06-27T09:44:05.816Z,95.30
2019-06-27T09:46:31.826Z,95.70
2019-06-27T09:48:57.828Z,95.30
2019-06-27T09:51:23.859Z,95.80
2019-06-27T09:53:49.915Z,96.20
2019-06-27T09:56:15.921Z,95.40
2019-06-27T09:58:41.907Z,94.60
2019-06-27T10:01:08.230Z,95.00
2019-06-27T10:03:34.211Z,95.70
2019-06-27T10:06:00.300Z,94.70
2019-06-27T10:08:26.298Z,94.40
2019-06-27T10:10:52.292Z,94.60
2019-06-27T10:13:18.312Z,94.00
2019-06-27T10:15:44.357Z,94.10
2019-06-27T10:18:10.352Z,94.10
2019-06-27T10:20:36.461Z,93.60
2019-06-27T10:23:02.607Z,92.20
2019-06-27T10:25:28.600Z,92.00
2019-06-27T10:27:54.807Z,91.60
2019-06-27T10:30:21.386Z,91.40
2019-06-27T10:32:58.281Z,88.00
2019-06-27T10:35:15.514Z,88.50
2019-06-27T10:37:42.305Z,88.80
2019-06-27T10:40:09.077Z,90.00
2019-06-27T10:42:35.181Z,89.40
2019-06-27T10:45:01.680Z,86.20
2019-06-27T10:47:27.963Z,83.40
2019-06-27T10:49:54.021Z,81.60
2019-06-27T10:52:20.136Z,79.30
2019-06-27T10:54:46.134Z,76.90
2019-06-27T10:57:12.242Z,76.00
2019-06-27T10:59:38.290Z,69.00
2019-06-27T11:02:05.582Z,69.50
2019-06-27T11:04:31.570Z,72.90
2019-06-27T11:06:57.580Z,71.10
2019-06-27T11:09:23.836Z,61.60
2019-06-27T11:11:49.917Z,61.00
2019-06-27T11:14:18.969Z,56.60
2019-06-27T11:16:44.286Z,59.40
2019-06-27T11:19:10.577Z,65.00
2019-06-27T11:21:36.737Z,64.10
2019-06-27T11:24:02.943Z,66.00
2019-06-27T11:26:28.989Z,64.50
2019-06-27T11:28:55.239Z,61.90
2019-06-27T11:31:23.508Z,59.90
2019-06-27T11:33:49.599Z,60.10
2019-06-27T11:36:15.637Z,59.80
2019-06-27T11:38:41.644Z,58.20
2019-06-27T11:41:08.092Z,56.70
2019-06-27T11:43:34.206Z,59.10
2019-06-27T11:46:02.297Z,55.90
2019-06-27T11:48:28.376Z,52.70
2019-06-27T11:50:54.820Z,55.60
2019-06-27T11:53:21.793Z,55.80
2019-06-27T11:55:47.897Z,56.10
2019-06-27T11:58:14.124Z,55.00
2019-06-27T12:00:40.178Z,54.60
2019-06-27T12:03:06.323Z,55.00
2019-06-27T12:05:32.417Z,54.70
2019-06-27T12:07:58.468Z,55.60
2019-06-27T12:10:24.720Z,54.90
2019-06-27T12:12:51.926Z,54.20
2019-06-27T12:15:18.168Z,55.40
2019-06-27T12:17:44.436Z,55.70
2019-06-27T12:20:10.658Z,56.90
2019-06-27T12:22:36.744Z,54.80
2019-06-27T12:25:03.322Z,51.30
2019-06-27T12:27:29.567Z,51.30
2019-06-27T12:29:55.592Z,51.00
2019-06-27T12:32:21.612Z,50.80
2019-06-27T12:34:47.659Z,50.80
2019-06-27T12:37:13.749Z,50.90
2019-06-27T12:39:43.528Z,50.90
2019-06-27T12:42:10.311Z,51.40
2019-06-27T12:44:36.324Z,50.00
2019-06-27T12:47:02.358Z,51.90
2019-06-27T12:49:44.877Z,49.10
2019-06-27T12:51:58.203Z,48.50
2019-06-27T12:54:25.529Z,49.90
2019-06-27T12:56:51.557Z,50.60
2019-06-27T12:59:17.672Z,48.70
2019-06-27T13:01:43.735Z,47.90
2019-06-27T13:04:22.988Z,46.30
2019-06-27T13:06:37.697Z,45.20
2019-06-27T13:09:05.105Z,42.70
2019-06-27T13:11:31.305Z,39.50
2019-06-27T13:13:57.590Z,40.90
2019-06-27T13:16:23.609Z,40.60
2019-06-27T13:18:49.659Z,41.30
2019-06-27T13:21:16.235Z,38.30
2019-06-27T13:23:42.710Z,38.90
2019-06-27T13:26:08.771Z,37.30
2019-06-27T13:28:34.792Z,37.60
2019-06-27T13:31:00.808Z,37.90
2019-06-27T13:33:26.883Z,38.80
2019-06-27T13:35:53.095Z,37.10
2019-06-27T13:38:19.190Z,37.30
2019-06-27T13:40:45.214Z,35.10
2019-06-27T13:43:11.236Z,34.50
2019-06-27T13:45:37.287Z,36.90
2019-06-27T13:48:03.323Z,37.30
2019-06-27T13:50:30.447Z,37.10
2019-06-27T13:52:56.477Z,36.10
2019-06-27T13:55:24.074Z,36.00
2019-06-27T13:57:50.588Z,36.80
2019-06-27T14:00:20.461Z,35.30
2019-06-27T14:02:46.483Z,36.00
2019-06-27T14:05:12.530Z,35.30
2019-06-27T14:07:39.781Z,34.60
2019-06-27T14:10:06.679Z,35.30
2019-06-27T14:12:33.794Z,34.30
2019-06-27T14:15:00.568Z,34.60
2019-06-27T14:17:26.943Z,34.70
2019-06-27T14:19:52.959Z,34.30
2019-06-27T14:22:32.789Z,35.40
2019-06-27T14:24:46.908Z,35.70
2019-06-27T14:27:13.264Z,34.20
2019-06-27T14:29:39.270Z,33.70
2019-06-27T14:32:05.418Z,34.50
2019-06-27T14:34:32.766Z,34.30
2019-06-27T14:36:58.772Z,34.70
2019-06-27T14:39:25.180Z,35.30
2019-06-27T14:41:51.194Z,35.50
2019-06-27T14:44:17.309Z,35.30
2019-06-27T14:46:43.425Z,35.40
2019-06-27T14:49:09.465Z,34.90
2019-06-27T14:51:36.016Z,35.10
2019-06-27T14:54:03.997Z,34.70
2019-06-27T14:56:30.034Z,34.80
2019-06-27T14:58:56.034Z,34.50
2019-06-27T15:01:22.089Z,33.70
2019-06-27T15:03:48.163Z,33.70
2019-06-27T15:06:14.190Z,33.90
2019-06-27T15:08:40.283Z,33.30
2019-06-27T15:11:06.339Z,32.80
2019-06-27T15:13:32.401Z,32.70
2019-06-27T15:16:11.257Z,33.10
2019-06-27T15:18:26.461Z,32.50
2019-06-27T15:20:52.413Z,33.10
2019-06-27T15:23:18.465Z,32.50
2019-06-27T15:25:44.507Z,32.70
2019-06-27T15:28:10.599Z,31.80
2019-06-27T15:30:36.689Z,31.60
2019-06-27T15:33:02.803Z,31.10
2019-06-27T15:35:28.805Z,31.30
2019-06-27T15:37:54.846Z,31.40
2019-06-27T15:40:22.039Z,30.80
2019-06-27T15:42:48.093Z,30.40
2019-06-27T15:45:14.613Z,30.30
2019-06-27T15:47:40.610Z,29.70
2019-06-27T15:50:08.250Z,29.90
2019-06-27T15:52:34.274Z,29.90
2019-06-27T15:55:00.354Z,30.00
2019-06-27T15:57:26.381Z,30.00
2019-06-27T15:59:57.175Z,29.40
2019-06-27T16:02:23.301Z,29.60
2019-06-27T16:04:49.409Z,29.70
2019-06-27T16:07:15.473Z,29.00
2019-06-27T16:09:44.010Z,29.70
2019-06-27T16:12:10.009Z,29.80
2019-06-27T16:14:36.160Z,30.00
2019-06-27T16:17:02.258Z,30.60
2019-06-27T16:19:29.068Z,30.80
2019-06-27T16:21:55.073Z,30.70
2019-06-27T16:24:21.407Z,31.30
2019-06-27T16:26:49.402Z,30.90
2019-06-27T16:29:16.180Z,30.80
2019-06-27T16:31:42.334Z,31.00
2019-06-27T16:34:08.348Z,30.90
2019-06-27T16:36:34.414Z,30.90
2019-06-27T16:39:00.446Z,30.70
2019-06-27T16:41:26.787Z,30.30
2019-06-27T16:43:53.031Z,30.80
2019-06-27T16:46:19.129Z,30.50
2019-06-27T16:48:45.236Z,30.00
2019-06-27T16:51:11.621Z,30.00
2019-06-27T16:53:37.649Z,30.50
2019-06-27T16:56:03.664Z,30.60
2019-06-27T16:58:29.701Z,30.40
2019-06-27T17:00:55.755Z,30.10
2019-06-27T17:03:23.645Z,30.20
2019-06-27T17:05:49.960Z,30.00
2019-06-27T17:08:16.095Z,29.50
2019-06-27T17:10:42.239Z,29.70
2019-06-27T17:13:08.313Z,29.70
2019-06-27T17:15:34.385Z,30.20
2019-06-27T17:18:00.413Z,29.90
2019-06-27T17:20:26.404Z,29.70
2019-06-27T17:22:52.566Z,29.60
2019-06-27T17:25:18.611Z,29.70
2019-06-27T17:27:45.355Z,30.40
2019-06-27T17:30:15.662Z,29.90
2019-06-27T17:32:42.022Z,29.60
2019-06-27T17:35:11.105Z,29.80
2019-06-27T17:37:37.165Z,29.90
2019-06-27T17:40:04.535Z,30.00
2019-06-27T17:42:33.661Z,29.70
2019-06-27T17:45:00.572Z,29.90
2019-06-27T17:47:27.410Z,30.00
2019-06-27T17:49:53.865Z,30.30
2019-06-27T17:52:20.303Z,30.20
2019-06-27T17:54:46.933Z,30.30
2019-06-27T17:57:13.913Z,30.40
2019-06-27T17:59:40.015Z,30.80
2019-06-27T18:02:07.239Z,31.00
2019-06-27T18:04:33.365Z,31.60
2019-06-27T18:07:13.027Z,31.80
2019-06-27T18:09:27.947Z,32.50
2019-06-27T18:11:54.690Z,32.40
2019-06-27T18:14:21.222Z,32.80
2019-06-27T18:16:48.581Z,32.90
2019-06-27T18:19:14.596Z,33.00
2019-06-27T18:21:43.044Z,32.90
2019-06-27T18:24:11.166Z,32.80
2019-06-27T18:26:37.845Z,32.90
2019-06-27T18:29:04.180Z,33.00
2019-06-27T18:31:30.357Z,33.50
2019-06-27T18:33:56.673Z,33.80
2019-06-27T18:36:22.869Z,33.70
2019-06-27T18:38:49.182Z,33.80
2019-06-27T18:41:16.673Z,33.90
2019-06-27T18:43:43.089Z,34.20
2019-06-27T18:46:09.186Z,33.90
2019-06-27T18:48:35.269Z,34.00
2019-06-27T18:51:01.504Z,34.60
2019-06-27T18:53:28.996Z,35.00
2019-06-27T18:55:55.161Z,35.30
2019-06-27T18:58:21.257Z,35.30
2019-06-27T19:00:47.365Z,35.30
2019-06-27T19:03:13.667Z,35.30
2019-06-27T19:05:39.720Z,35.80
2019-06-27T19:08:05.837Z,36.50
2019-06-27T19:10:31.865Z,36.70
2019-06-27T19:12:58.106Z,37.60
2019-06-27T19:15:24.135Z,38.00
2019-06-27T19:17:50.467Z,38.50
2019-06-27T19:20:27.450Z,39.30
2019-06-27T19:22:57.976Z,39.70
2019-06-27T19:25:25.977Z,40.40
2019-06-27T19:27:52.015Z,40.80
2019-06-27T19:30:18.069Z,41.20
2019-06-27T19:32:45.017Z,41.70
2019-06-27T19:35:11.228Z,42.40
2019-06-27T19:37:37.261Z,42.20
2019-06-27T19:40:06.722Z,42.40
2019-06-27T19:42:32.738Z,42.90
2019-06-27T19:44:58.759Z,43.90
2019-06-27T19:47:25.893Z,43.50
2019-06-27T19:49:53.057Z,43.90
2019-06-27T19:52:19.062Z,43.70
2019-06-27T19:54:45.145Z,43.80
2019-06-27T19:57:11.239Z,44.00
2019-06-27T19:59:39.160Z,44.10
2019-06-27T20:02:05.838Z,44.40
2019-06-27T20:04:34.086Z,44.40
2019-06-27T20:07:01.196Z,44.80
2019-06-27T20:09:27.492Z,45.00
2019-06-27T20:11:53.512Z,45.50
2019-06-27T20:14:19.539Z,45.80
2019-06-27T20:16:47.549Z,45.60
2019-06-27T20:19:14.407Z,46.10
2019-06-27T20:21:40.422Z,46.50
2019-06-27T20:24:07.929Z,46.60
2019-06-27T20:26:34.009Z,46.40
2019-06-27T20:29:00.061Z,46.80
2019-06-27T20:31:26.110Z,46.50
2019-06-27T20:33:52.388Z,46.80
2019-06-27T20:36:18.521Z,47.10
2019-06-27T20:38:45.597Z,47.00
2019-06-27T20:41:12.752Z,47.60
2019-06-27T20:43:38.798Z,47.60
2019-06-27T20:46:04.902Z,47.80
2019-06-27T20:48:30.930Z,48.00
2019-06-27T20:50:57.226Z,47.50
2019-06-27T20:53:23.464Z,48.00
2019-06-27T20:55:49.497Z,47.80
2019-06-27T20:58:15.523Z,48.30
2019-06-27T21:00:41.617Z,48.40
2019-06-27T21:03:07.649Z,48.30
2019-06-27T21:05:33.677Z,48.40
2019-06-27T21:07:59.691Z,48.80
2019-06-27T21:10:27.677Z,49.10
2019-06-27T21:12:53.722Z,49.10
2019-06-27T21:15:19.877Z,49.00
2019-06-27T21:17:45.879Z,49.40
2019-06-27T21:20:12.107Z,49.10
2019-06-27T21:22:38.840Z,49.60
2019-06-27T21:25:05.078Z,49.80
2019-06-27T21:27:31.135Z,50.20
2019-06-27T21:29:57.292Z,50.00
2019-06-27T21:32:31.420Z,49.90
2019-06-27T21:34:51.513Z,50.00
2019-06-27T21:37:17.760Z,50.40
2019-06-27T21:39:43.877Z,50.70
2019-06-27T21:42:09.873Z,51.10
2019-06-27T21:44:35.900Z,51.00
2019-06-27T21:47:01.970Z,51.40
2019-06-27T21:49:28.477Z,51.00
2019-06-27T21:51:54.490Z,51.40
2019-06-27T21:54:24.164Z,51.60
2019-06-27T21:56:50.256Z,51.90
2019-06-27T21:59:16.259Z,52.60
2019-06-27T22:01:42.266Z,52.90
2019-06-27T22:04:08.417Z,53.20
2019-06-27T22:06:34.864Z,53.50
2019-06-27T22:09:00.880Z,53.80
2019-06-27T22:11:26.879Z,54.30
2019-06-27T22:13:52.901Z,54.80
2019-06-27T22:16:18.941Z,55.30
2019-06-27T22:18:45.110Z,55.60
2019-06-27T22:21:11.196Z,55.90
2019-06-27T22:23:37.184Z,56.20
2019-06-27T22:26:03.241Z,56.40
2019-06-27T22:28:29.284Z,57.10
2019-06-27T22:30:57.802Z,57.60
2019-06-27T22:33:25.876Z,58.10
2019-06-27T22:35:51.881Z,58.20
2019-06-27T22:38:36.020Z,58.70
2019-06-27T22:41:21.843Z,59.10
2019-06-27T22:44:06.191Z,60.10
2019-06-27T22:46:50.560Z,60.80
2019-06-27T22:49:16.695Z,61.60
2019-06-27T22:51:47.190Z,62.40
2019-06-27T22:54:21.014Z,62.40
2019-06-27T22:56:48.535Z,63.80
2019-06-27T22:59:14.571Z,64.90
2019-06-27T23:01:40.597Z,65.70
2019-06-27T23:04:06.596Z,66.60
2019-06-27T23:06:33.944Z,67.70
2019-06-27T23:09:02.151Z,68.40
2019-06-27T23:11:29.709Z,69.90
2019-06-27T23:13:55.997Z,70.80
2019-06-27T23:16:22.189Z,71.70
2019-06-27T23:18:48.191Z,73.40
2019-06-27T23:21:14.199Z,74.30
2019-06-27T23:23:40.238Z,76.20
2019-06-27T23:26:06.259Z,77.60
2019-06-27T23:28:32.260Z,79.40
2019-06-27T23:30:58.323Z,80.90
2019-06-27T23:33:24.338Z,81.90
2019-06-27T23:35:50.371Z,82.80
2019-06-27T23:38:16.461Z,84.70
2019-06-27T23:40:44.443Z,86.40
2019-06-27T23:43:10.514Z,88.60
2019-06-27T23:45:37.377Z,90.10
2019-06-27T23:48:03.360Z,90.70
2019-06-27T23:50:29.371Z,91.30
2019-06-27T23:52:55.405Z,91.80
2019-06-27T23:55:21.401Z,92.30
2019-06-27T23:57:47.429Z,92.70
